Terminal Aerodrome Forecast
Issued by NWS

Home | Current Version | Previous Version | Text Only | Print | Product List | Glossary On
Versions: 1 2 3 4 5 6 7 8 9 10 11 12 13 14 15
000
FTUS45 KTFX 031740
TAFLWT
TAF
KLWT 031740Z 0318/0418 VRB06KT P6SM VCSH SCT040 BKN100
     FM032200 10010KT P6SM VCTS SCT035CB BKN060
      TEMPO 0400/0404 -TSRA BKN035CB
     FM040400 10008KT P6SM -SHRA SCT025 OVC035=

USA.gov is the U.S. government's official web portal to all federal, state and local government web resources and services.